Time;durP1;ratioP1;P1;durP2;ratioP2;P2;SDS_P1;SDS_P2;PMS_P1;PMS_P2;Temp;Humidity;BMP_temperature;BMP_pressure;BME280_temperature;BME280_humidity;BME280_pressure;Samples;Min_cycle;Max_cycle;Signal;HPM_P1;HPM_P2
2021/05/05 00:01:24;;;;;;;2.60;0.20;;;;;;;;;;5031566;28;20432;-51
2021/05/05 00:03:49;;;;;;;1.77;0.20;;;;;;;;;;5032215;28;20382;-54
2021/05/05 00:06:15;;;;;;;2.05;0.30;;;;;;;;;;5032618;28;20473;-53
2021/05/05 00:08:41;;;;;;;1.35;0.22;;;;;;;;;;5024324;28;20387;-47
2021/05/05 00:11:06;;;;;;;2.70;0.22;;;;;;;;;;5029298;28;20079;-52
2021/05/05 00:13:31;;;;;;;1.60;0.20;;;;;;;;;;5032185;28;20103;-53
2021/05/05 00:15:57;;;;;;;0.80;0.20;;;;;;;;;;5031412;28;20062;-50
2021/05/05 00:18:22;;;;;;;1.42;0.30;;;;;;;;;;5028590;28;20057;-50
2021/05/05 00:20:47;;;;;;;1.75;0.17;;;;;;;;;;5032017;28;20021;-50
2021/05/05 00:23:12;;;;;;;2.55;0.30;;;;;;;;;;5031840;28;20033;-48
2021/05/05 00:25:37;;;;;;;2.25;0.30;;;;;;;;;;5031815;28;20542;-51
2021/05/05 00:28:03;;;;;;;0.40;0.03;;;;;;;;;;5028117;28;20493;-47
2021/05/05 00:30:28;;;;;;;1.38;0.32;;;;;;;;;;5031753;28;20049;-50
2021/05/05 00:32:54;;;;;;;0.85;0.20;;;;;;;;;;5037078;28;20095;-51
2021/05/05 00:35:19;;;;;;;1.70;0.40;;;;;;;;;;5051252;28;20017;-50
2021/05/05 00:37:44;;;;;;;3.20;0.38;;;;;;;;;;5032020;28;20097;-53
2021/05/05 00:40:11;;;;;;;6.40;0.45;;;;;;;;;;5031867;28;20021;-51
2021/05/05 00:42:36;;;;;;;1.92;0.30;;;;;;;;;;5031989;28;20068;-53
2021/05/05 00:45:09;;;;;;;3.75;0.30;;;;;;;;;;5031529;28;20021;-54
2021/05/05 00:47:35;;;;;;;2.92;0.30;;;;;;;;;;5028578;28;20380;-50
2021/05/05 00:50:01;;;;;;;1.65;0.30;;;;;;;;;;5031927;28;20105;-46
2021/05/05 00:52:26;;;;;;;3.42;0.57;;;;;;;;;;5032212;28;20134;-55
2021/05/05 00:54:52;;;;;;;3.53;0.30;;;;;;;;;;5032072;28;20049;-53
2021/05/05 00:57:17;;;;;;;2.58;0.30;;;;;;;;;;5028312;28;20117;-51
2021/05/05 00:59:43;;;;;;;3.70;0.85;;;;;;;;;;5034776;28;20063;-51
2021/05/05 01:02:08;;;;;;;2.75;0.43;;;;;;;;;;5034048;28;20461;-49
2021/05/05 01:04:33;;;;;;;2.83;0.40;;;;;;;;;;5031016;28;20564;-54
2021/05/05 01:06:59;;;;;;;1.85;0.40;;;;;;;;;;5032877;28;20013;-52
2021/05/05 01:09:25;;;;;;;2.40;0.40;;;;;;;;;;5034264;28;20064;-50
2021/05/05 01:11:51;;;;;;;2.67;0.38;;;;;;;;;;5034956;28;20026;-50
2021/05/05 01:14:17;;;;;;;1.52;0.40;;;;;;;;;;5035373;28;20350;-50
2021/05/05 01:16:42;;;;;;;3.30;0.50;;;;;;;;;;5035383;28;20055;-52
2021/05/05 01:19:07;;;;;;;1.23;0.40;;;;;;;;;;5027566;28;20486;-51
2021/05/05 01:21:33;;;;;;;2.35;0.40;;;;;;;;;;5053971;28;20491;-46
2021/05/05 01:23:58;;;;;;;3.92;0.35;;;;;;;;;;5055230;28;20127;-52
2021/05/05 01:26:23;;;;;;;5.30;0.60;;;;;;;;;;5037333;28;20112;-53
2021/05/05 01:28:48;;;;;;;2.72;0.40;;;;;;;;;;5031814;28;20100;-49
2021/05/05 01:31:15;;;;;;;1.65;0.40;;;;;;;;;;5034874;28;20018;-53
2021/05/05 01:33:41;;;;;;;3.30;0.40;;;;;;;;;;5040017;28;20113;-51
2021/05/05 01:36:07;;;;;;;4.65;0.65;;;;;;;;;;5034890;28;20488;-51
2021/05/05 01:38:32;;;;;;;3.15;0.70;;;;;;;;;;5031987;28;20377;-53
2021/05/05 01:40:58;;;;;;;5.35;0.57;;;;;;;;;;5034055;28;20079;-53
2021/05/05 01:43:23;;;;;;;3.10;0.57;;;;;;;;;;5035245;28;20064;-53
2021/05/05 01:45:48;;;;;;;4.38;1.10;;;;;;;;;;5034322;28;20068;-53
2021/05/05 01:48:15;;;;;;;2.88;0.30;;;;;;;;;;5032004;28;20064;-54
2021/05/05 01:50:40;;;;;;;1.95;0.40;;;;;;;;;;5034787;28;20024;-48
2021/05/05 01:53:06;;;;;;;2.67;0.50;;;;;;;;;;5036431;28;20212;-49
2021/05/05 01:55:31;;;;;;;2.28;0.43;;;;;;;;;;5034608;28;20029;-53
2021/05/05 01:57:56;;;;;;;1.75;0.30;;;;;;;;;;5031573;28;20064;-53
2021/05/05 02:00:23;;;;;;;0.70;0.28;;;;;;;;;;5034466;28;20048;-53
2021/05/05 02:02:48;;;;;;;2.35;0.30;;;;;;;;;;5033492;28;20173;-51
2021/05/05 02:05:14;;;;;;;2.65;0.50;;;;;;;;;;5034671;28;20087;-53
2021/05/05 02:07:39;;;;;;;2.67;0.30;;;;;;;;;;5031517;28;20021;-48
2021/05/05 02:10:12;;;;;;;2.45;0.52;;;;;;;;;;5033034;28;20382;-51
2021/05/05 02:12:37;;;;;;;3.47;0.30;;;;;;;;;;5033860;28;20032;-54
2021/05/05 02:15:03;;;;;;;3.15;0.95;;;;;;;;;;5033923;28;20033;-50
2021/05/05 02:17:29;;;;;;;1.05;0.20;;;;;;;;;;5031499;28;20034;-51
2021/05/05 02:19:54;;;;;;;1.42;0.30;;;;;;;;;;5034028;28;20021;-53
2021/05/05 02:22:19;;;;;;;3.85;0.50;;;;;;;;;;5034093;28;20414;-48
2021/05/05 02:24:44;;;;;;;1.40;0.30;;;;;;;;;;5034310;28;20547;-48
2021/05/05 02:27:10;;;;;;;4.18;0.50;;;;;;;;;;5030695;28;20344;-52
2021/05/05 02:29:35;;;;;;;2.35;0.20;;;;;;;;;;5034103;28;20116;-54
2021/05/05 02:32:01;;;;;;;2.50;0.30;;;;;;;;;;5033655;28;20021;-49
2021/05/05 02:34:27;;;;;;;2.38;0.20;;;;;;;;;;5035563;28;20055;-47
2021/05/05 02:36:52;;;;;;;1.50;0.30;;;;;;;;;;5033422;28;20033;-52
2021/05/05 02:39:19;;;;;;;3.70;0.57;;;;;;;;;;5032237;28;20060;-48
2021/05/05 02:41:44;;;;;;;2.97;0.40;;;;;;;;;;5033503;28;20463;-52
2021/05/05 02:44:09;;;;;;;2.22;0.30;;;;;;;;;;5033502;28;20060;-50
2021/05/05 02:46:35;;;;;;;3.20;0.60;;;;;;;;;;5033739;28;20033;-49
2021/05/05 02:49:00;;;;;;;2.22;0.30;;;;;;;;;;5030611;28;20021;-53
2021/05/05 02:51:26;;;;;;;2.17;0.30;;;;;;;;;;5033369;28;20500;-51
2021/05/05 02:53:51;;;;;;;2.58;0.30;;;;;;;;;;5033621;28;20029;-52
2021/05/05 02:56:16;;;;;;;2.53;0.30;;;;;;;;;;5033239;28;20495;-53
2021/05/05 02:58:41;;;;;;;3.25;0.28;;;;;;;;;;5035314;28;20057;-55
2021/05/05 03:01:07;;;;;;;3.00;0.30;;;;;;;;;;5033083;28;20430;-50
2021/05/05 03:03:32;;;;;;;1.60;0.30;;;;;;;;;;5032961;28;20033;-49
2021/05/05 03:05:57;;;;;;;1.70;0.30;;;;;;;;;;5033469;28;20111;-52
2021/05/05 03:08:22;;;;;;;1.85;0.30;;;;;;;;;;5030338;28;20497;-47
2021/05/05 03:10:47;;;;;;;1.58;0.30;;;;;;;;;;5032593;28;20025;-54
2021/05/05 03:13:13;;;;;;;3.33;0.30;;;;;;;;;;5033248;28;20032;-54
2021/05/05 03:15:38;;;;;;;3.05;0.50;;;;;;;;;;5032884;28;20048;-52
2021/05/05 03:18:03;;;;;;;1.75;0.30;;;;;;;;;;5030119;28;20029;-51
2021/05/05 03:20:29;;;;;;;1.15;0.20;;;;;;;;;;5028193;28;20136;-49
2021/05/05 03:22:54;;;;;;;2.80;0.68;;;;;;;;;;5032913;28;20083;-49
2021/05/05 03:25:19;;;;;;;1.75;0.30;;;;;;;;;;5032333;28;20022;-52
2021/05/05 03:27:45;;;;;;;3.95;0.40;;;;;;;;;;5029975;28;20028;-49
2021/05/05 03:30:10;;;;;;;4.75;1.60;;;;;;;;;;5032812;28;20485;-53
2021/05/05 03:32:36;;;;;;;0.95;0.30;;;;;;;;;;5034669;28;20440;-52
2021/05/05 03:35:02;;;;;;;2.08;0.40;;;;;;;;;;5034058;28;20397;-54
2021/05/05 03:37:27;;;;;;;1.83;0.30;;;;;;;;;;5029302;28;20029;-54
2021/05/05 03:39:52;;;;;;;1.05;0.40;;;;;;;;;;5032456;28;20384;-50
2021/05/05 03:42:18;;;;;;;2.35;0.60;;;;;;;;;;5032136;28;20065;-48
2021/05/05 03:44:43;;;;;;;2.05;0.45;;;;;;;;;;5032816;28;20033;-54
2021/05/05 03:47:08;;;;;;;1.38;0.50;;;;;;;;;;5029342;28;20025;-49
2021/05/05 03:49:33;;;;;;;2.40;0.38;;;;;;;;;;5032419;28;20059;-52
2021/05/05 03:51:59;;;;;;;4.07;0.40;;;;;;;;;;5032812;28;20024;-52
2021/05/05 03:54:24;;;;;;;4.13;0.35;;;;;;;;;;5032535;28;20382;-51
2021/05/05 03:56:49;;;;;;;1.75;0.20;;;;;;;;;;5032240;28;20079;-51
2021/05/05 03:59:14;;;;;;;3.03;0.60;;;;;;;;;;5029916;28;20022;-50
2021/05/05 04:01:39;;;;;;;2.90;0.65;;;;;;;;;;5032380;28;20079;-50
2021/05/05 04:04:05;;;;;;;2.65;0.30;;;;;;;;;;5032521;28;20114;-52
2021/05/05 04:06:30;;;;;;;1.85;0.40;;;;;;;;;;5032514;28;20053;-49
2021/05/05 04:08:55;;;;;;;3.22;0.40;;;;;;;;;;5029200;28;20045;-49
2021/05/05 04:11:20;;;;;;;3.65;0.47;;;;;;;;;;5031408;28;20495;-51
2021/05/05 04:13:46;;;;;;;4.60;0.60;;;;;;;;;;5032047;28;20024;-54
2021/05/05 04:16:11;;;;;;;1.20;0.30;;;;;;;;;;5028338;28;20033;-49
2021/05/05 04:18:36;;;;;;;3.00;0.63;;;;;;;;;;5031781;28;20228;-53
2021/05/05 04:21:03;;;;;;;2.38;0.40;;;;;;;;;;5050434;28;20052;-52
2021/05/05 04:23:29;;;;;;;4.20;0.40;;;;;;;;;;5032464;28;20075;-48
2021/05/05 04:25:54;;;;;;;4.55;0.50;;;;;;;;;;5032368;28;20028;-53
2021/05/05 04:28:20;;;;;;;3.17;0.55;;;;;;;;;;5044974;28;20033;-54
2021/05/05 04:30:45;;;;;;;1.23;0.40;;;;;;;;;;5032830;28;20105;-52
2021/05/05 04:33:11;;;;;;;1.10;0.20;;;;;;;;;;5036999;28;20425;-51
2021/05/05 04:35:36;;;;;;;2.97;0.40;;;;;;;;;;5036399;28;20026;-51
2021/05/05 04:38:01;;;;;;;2.40;0.60;;;;;;;;;;5033213;28;20469;-53
2021/05/05 04:40:26;;;;;;;2.20;0.30;;;;;;;;;;5044115;28;20014;-51
2021/05/05 04:42:52;;;;;;;3.05;0.50;;;;;;;;;;5035809;28;20037;-50
2021/05/05 04:45:17;;;;;;;1.10;0.50;;;;;;;;;;5036402;28;20021;-52
2021/05/05 04:47:42;;;;;;;1.98;0.40;;;;;;;;;;5042810;28;20021;-51
2021/05/05 04:50:09;;;;;;;2.40;0.40;;;;;;;;;;5039417;28;20026;-53
2021/05/05 04:52:34;;;;;;;1.70;0.50;;;;;;;;;;5049314;28;20036;-51
2021/05/05 04:54:59;;;;;;;1.40;0.40;;;;;;;;;;5049744;28;20021;-48
2021/05/05 04:57:24;;;;;;;2.17;0.57;;;;;;;;;;5043219;28;20029;-53
2021/05/05 04:59:50;;;;;;;3.83;0.38;;;;;;;;;;5043831;28;20384;-47
2021/05/05 05:02:15;;;;;;;2.45;0.52;;;;;;;;;;5037618;28;20556;-52
2021/05/05 05:04:40;;;;;;;3.60;0.73;;;;;;;;;;5036534;28;20092;-55
2021/05/05 05:07:06;;;;;;;0.95;0.30;;;;;;;;;;5033444;28;20025;-53
2021/05/05 05:09:31;;;;;;;3.63;0.70;;;;;;;;;;5038574;28;20095;-50
2021/05/05 05:11:57;;;;;;;2.15;0.50;;;;;;;;;;5054955;28;20021;-53
2021/05/05 05:14:22;;;;;;;4.25;0.50;;;;;;;;;;5035653;28;20469;-53
2021/05/05 05:16:47;;;;;;;2.10;0.40;;;;;;;;;;5035366;28;20057;-52
2021/05/05 05:19:13;;;;;;;1.15;0.20;;;;;;;;;;5037845;28;20021;-49
2021/05/05 05:21:38;;;;;;;3.75;0.30;;;;;;;;;;5046238;28;20048;-52
2021/05/05 05:24:03;;;;;;;2.28;0.40;;;;;;;;;;5042255;28;20029;-50
2021/05/05 05:26:28;;;;;;;4.38;1.25;;;;;;;;;;5053340;28;20039;-54
2021/05/05 05:28:54;;;;;;;3.53;0.43;;;;;;;;;;5044840;28;20017;-50
2021/05/05 05:31:19;;;;;;;1.98;0.40;;;;;;;;;;5033883;28;20104;-53
2021/05/05 05:33:44;;;;;;;2.05;0.50;;;;;;;;;;5034954;28;20029;-53
2021/05/05 05:36:09;;;;;;;2.83;0.30;;;;;;;;;;5034485;28;20025;-53
2021/05/05 05:38:34;;;;;;;2.85;0.40;;;;;;;;;;5029908;28;20377;-50
2021/05/05 05:41:00;;;;;;;0.50;0.20;;;;;;;;;;5032034;28;20017;-50
2021/05/05 05:43:25;;;;;;;1.20;0.40;;;;;;;;;;5052982;28;20063;-53
2021/05/05 05:45:50;;;;;;;2.17;0.30;;;;;;;;;;5052548;28;20071;-54
2021/05/05 05:48:15;;;;;;;1.25;0.13;;;;;;;;;;5049384;28;20021;-53
2021/05/05 05:50:41;;;;;;;4.80;0.50;;;;;;;;;;5050051;28;20029;-51
2021/05/05 05:53:06;;;;;;;2.90;0.43;;;;;;;;;;5037100;28;20030;-51
2021/05/05 05:55:33;;;;;;;0.65;0.20;;;;;;;;;;5034899;28;20029;-50
2021/05/05 05:57:59;;;;;;;1.65;0.45;;;;;;;;;;5023148;28;20068;-50
2021/05/05 06:00:24;;;;;;;1.17;0.15;;;;;;;;;;5035237;28;20017;-54
2021/05/05 06:02:50;;;;;;;2.60;0.30;;;;;;;;;;5040627;28;20022;-51
2021/05/05 06:05:15;;;;;;;1.00;0.30;;;;;;;;;;5038138;28;20077;-49
2021/05/05 06:07:40;;;;;;;1.52;0.20;;;;;;;;;;5036760;28;20024;-52
2021/05/05 06:10:07;;;;;;;2.67;0.50;;;;;;;;;;5036500;28;20390;-49
2021/05/05 06:12:32;;;;;;;0.82;0.30;;;;;;;;;;5034245;28;20053;-52
2021/05/05 06:14:58;;;;;;;3.35;0.60;;;;;;;;;;5030791;28;20123;-53
2021/05/05 06:17:23;;;;;;;2.33;0.32;;;;;;;;;;5033034;28;20025;-48
2021/05/05 06:19:49;;;;;;;4.30;0.40;;;;;;;;;;5034209;28;20018;-49
2021/05/05 06:22:14;;;;;;;5.38;0.30;;;;;;;;;;5015211;28;20366;-55
2021/05/05 06:24:39;;;;;;;1.80;0.20;;;;;;;;;;5031006;28;20391;-52
2021/05/05 06:27:06;;;;;;;1.67;0.38;;;;;;;;;;5035765;28;20044;-48
2021/05/05 06:29:32;;;;;;;2.13;0.30;;;;;;;;;;5050258;28;20024;-54
2021/05/05 06:31:57;;;;;;;2.38;0.40;;;;;;;;;;5036129;28;20013;-52
2021/05/05 06:34:22;;;;;;;2.15;0.40;;;;;;;;;;5033848;28;20022;-49
2021/05/05 06:36:47;;;;;;;2.20;0.30;;;;;;;;;;5050710;28;20100;-50
2021/05/05 06:39:13;;;;;;;1.33;0.20;;;;;;;;;;5030969;28;20036;-52
2021/05/05 06:41:39;;;;;;;2.20;0.45;;;;;;;;;;5029555;28;20044;-54
2021/05/05 06:44:04;;;;;;;1.08;0.20;;;;;;;;;;5031169;28;20035;-54
2021/05/05 06:46:30;;;;;;;2.85;0.50;;;;;;;;;;5033394;28;20022;-54
2021/05/05 06:48:57;;;;;;;0.75;0.50;;;;;;;;;;5030254;28;20018;-52
2021/05/05 06:51:22;;;;;;;1.35;0.40;;;;;;;;;;5033788;28;20022;-50
2021/05/05 06:53:47;;;;;;;3.75;0.20;;;;;;;;;;5032841;28;20538;-49
2021/05/05 06:56:12;;;;;;;1.40;0.40;;;;;;;;;;5036179;28;20029;-55
2021/05/05 06:58:38;;;;;;;1.70;0.20;;;;;;;;;;5029733;28;20014;-53
2021/05/05 07:01:03;;;;;;;3.30;0.30;;;;;;;;;;5032867;28;20025;-50
2021/05/05 07:03:28;;;;;;;2.22;0.40;;;;;;;;;;5042127;28;20021;-54
2021/05/05 07:05:53;;;;;;;2.63;0.28;;;;;;;;;;5033056;28;20017;-51
2021/05/05 07:08:19;;;;;;;1.75;0.30;;;;;;;;;;5039578;28;20041;-52
2021/05/05 07:10:44;;;;;;;2.08;0.20;;;;;;;;;;5037377;28;20104;-54
2021/05/05 07:13:09;;;;;;;1.10;0.30;;;;;;;;;;5031383;28;20025;-53
2021/05/05 07:15:34;;;;;;;1.15;0.50;;;;;;;;;;5036597;28;20362;-51
2021/05/05 07:18:00;;;;;;;3.78;0.30;;;;;;;;;;5034256;28;20052;-53
2021/05/05 07:20:25;;;;;;;1.52;0.20;;;;;;;;;;5050382;28;20040;-52
2021/05/05 07:22:50;;;;;;;2.13;0.30;;;;;;;;;;5032377;28;20079;-50
2021/05/05 07:25:15;;;;;;;2.22;0.40;;;;;;;;;;5033255;28;20385;-52
2021/05/05 07:27:42;;;;;;;2.25;0.30;;;;;;;;;;5031848;28;20017;-53
2021/05/05 07:30:08;;;;;;;2.75;0.20;;;;;;;;;;5032701;28;20030;-51
2021/05/05 07:32:33;;;;;;;0.45;0.20;;;;;;;;;;5032763;28;20428;-52
2021/05/05 07:35:00;;;;;;;1.48;0.20;;;;;;;;;;5032304;28;20099;-54
2021/05/05 07:48:11;;;;;;;9.43;0.30;;;;;;;;;;5025024;28;20053;-54
2021/05/05 07:50:36;;;;;;;3.05;0.40;;;;;;;;;;5028624;28;20033;-53
2021/05/05 07:53:02;;;;;;;1.25;0.30;;;;;;;;;;5013899;28;20032;-50
2021/05/05 07:55:27;;;;;;;2.10;0.20;;;;;;;;;;5010297;28;20028;-54
2021/05/05 07:57:53;;;;;;;2.47;0.85;;;;;;;;;;5007189;28;20030;-53
2021/05/05 08:00:19;;;;;;;1.10;0.20;;;;;;;;;;5010581;28;20025;-53
2021/05/05 08:02:44;;;;;;;0.88;0.20;;;;;;;;;;5028331;28;20058;-53
2021/05/05 08:05:09;;;;;;;1.10;0.50;;;;;;;;;;5010221;28;20568;-54
2021/05/05 08:07:34;;;;;;;3.75;0.30;;;;;;;;;;5008994;28;20018;-52
2021/05/05 08:10:00;;;;;;;2.35;0.13;;;;;;;;;;5013961;28;20048;-51
2021/05/05 08:12:25;;;;;;;2.20;0.28;;;;;;;;;;5008673;28;20104;-54
2021/05/05 08:14:51;;;;;;;1.27;0.20;;;;;;;;;;5010711;28;20504;-50
2021/05/05 08:17:16;;;;;;;1.25;0.20;;;;;;;;;;5013836;28;20409;-51
2021/05/05 08:19:42;;;;;;;1.35;0.20;;;;;;;;;;5037385;28;20025;-51
2021/05/05 08:22:07;;;;;;;0.73;0.20;;;;;;;;;;5034945;28;20049;-53
2021/05/05 08:24:32;;;;;;;2.72;0.30;;;;;;;;;;5039814;28;20116;-54
2021/05/05 08:26:58;;;;;;;3.72;0.28;;;;;;;;;;5030221;28;20075;-51
2021/05/05 08:29:27;;;;;;;1.85;0.47;;;;;;;;;;5031026;28;20052;-52
2021/05/05 08:31:52;;;;;;;3.45;0.22;;;;;;;;;;5031256;28;20187;-54
2021/05/05 08:34:17;;;;;;;2.08;0.57;;;;;;;;;;5031710;28;20021;-54
2021/05/05 08:36:43;;;;;;;1.88;0.20;;;;;;;;;;5031825;28;20143;-53
2021/05/05 08:39:08;;;;;;;1.50;0.40;;;;;;;;;;5028799;28;20025;-50
2021/05/05 08:41:36;;;;;;;4.05;0.32;;;;;;;;;;5028675;28;20029;-52
2021/05/05 08:44:01;;;;;;;1.60;0.20;;;;;;;;;;5024196;28;20473;-52
2021/05/05 08:46:27;;;;;;;1.80;0.30;;;;;;;;;;5030912;28;20028;-55
2021/05/05 08:48:52;;;;;;;1.10;0.50;;;;;;;;;;5027586;28;20108;-54
2021/05/05 08:51:17;;;;;;;2.08;0.22;;;;;;;;;;5030994;28;20025;-54
2021/05/05 08:53:43;;;;;;;2.20;0.50;;;;;;;;;;5031681;28;20389;-49
2021/05/05 08:56:09;;;;;;;2.05;0.30;;;;;;;;;;5030850;28;20022;-53
2021/05/05 08:58:34;;;;;;;3.78;0.40;;;;;;;;;;5030275;28;20033;-53
2021/05/05 09:01:00;;;;;;;2.15;0.90;;;;;;;;;;5029604;28;20437;-56
2021/05/05 09:03:29;;;;;;;0.65;0.20;;;;;;;;;;5031400;28;20048;-54
2021/05/05 09:05:58;;;;;;;5.03;0.52;;;;;;;;;;5030965;28;20025;-52
2021/05/05 09:08:23;;;;;;;1.73;0.30;;;;;;;;;;5043520;28;20037;-54
2021/05/05 09:10:55;;;;;;;3.75;0.50;;;;;;;;;;5049701;28;20025;-50
2021/05/05 09:13:39;;;;;;;4.78;0.30;;;;;;;;;;5023601;28;20424;-54
2021/05/05 09:16:08;;;;;;;3.17;0.30;;;;;;;;;;5027519;28;20117;-49
2021/05/05 09:19:12;;;;;;;0.85;0.40;;;;;;;;;;5020424;28;20036;-55
2021/05/05 09:21:38;;;;;;;3.10;0.47;;;;;;;;;;5011557;28;20022;-51
2021/05/05 09:24:13;;;;;;;1.75;0.20;;;;;;;;;;5011880;28;20129;-53
2021/05/05 09:26:38;;;;;;;2.10;0.20;;;;;;;;;;5012367;28;20465;-55
2021/05/05 09:29:04;;;;;;;1.98;0.30;;;;;;;;;;5009505;28;20100;-52
2021/05/05 09:31:33;;;;;;;2.85;0.50;;;;;;;;;;5007351;28;20091;-50
2021/05/05 09:33:58;;;;;;;2.05;0.10;;;;;;;;;;5012483;28;20034;-56
2021/05/05 09:36:23;;;;;;;2.80;0.60;;;;;;;;;;5012873;28;20026;-56
2021/05/05 09:38:50;;;;;;;1.35;0.30;;;;;;;;;;5009526;28;20532;-55
2021/05/05 09:41:19;;;;;;;5.45;0.50;;;;;;;;;;5010771;28;20489;-52
2021/05/05 09:43:44;;;;;;;3.80;0.45;;;;;;;;;;5012592;28;20121;-53
2021/05/05 09:46:28;;;;;;;1.90;0.30;;;;;;;;;;5011822;28;20105;-50
2021/05/05 09:48:53;;;;;;;2.00;0.40;;;;;;;;;;5008023;28;20042;-54
2021/05/05 09:51:18;;;;;;;3.47;0.40;;;;;;;;;;5001675;28;20027;-53
2021/05/05 09:53:47;;;;;;;0.47;0.38;;;;;;;;;;5008614;28;20069;-52
2021/05/05 09:56:12;;;;;;;4.25;0.60;;;;;;;;;;5014081;28;20045;-53
2021/05/05 09:58:41;;;;;;;0.77;0.50;;;;;;;;;;5017884;28;20407;-51
2021/05/05 10:01:07;;;;;;;1.60;0.32;;;;;;;;;;5023794;28;20111;-49
2021/05/05 10:03:43;;;;;;;1.75;0.22;;;;;;;;;;5030736;28;20065;-52
2021/05/05 10:06:23;;;;;;;2.08;0.35;;;;;;;;;;5025308;28;20026;-52
2021/05/05 10:08:51;;;;;;;1.90;0.35;;;;;;;;;;5039545;28;20083;-52
2021/05/05 10:11:20;;;;;;;0.98;0.35;;;;;;;;;;5033662;28;20070;-50
2021/05/05 10:13:53;;;;;;;2.70;0.30;;;;;;;;;;5034379;28;20388;-49
2021/05/05 10:16:20;;;;;;;1.45;0.25;;;;;;;;;;5034474;28;20068;-52
2021/05/05 10:18:46;;;;;;;1.42;0.30;;;;;;;;;;5036186;28;20422;-54
2021/05/05 10:21:13;;;;;;;0.77;0.20;;;;;;;;;;5038004;28;20049;-52
2021/05/05 10:23:39;;;;;;;1.92;0.20;;;;;;;;;;5029939;28;20042;-53
2021/05/05 10:26:04;;;;;;;2.72;0.50;;;;;;;;;;5033605;28;20033;-53
2021/05/05 10:28:30;;;;;;;1.92;0.28;;;;;;;;;;5030568;28;20021;-50
2021/05/05 10:30:55;;;;;;;1.50;0.30;;;;;;;;;;5032635;28;20033;-53
2021/05/05 10:33:25;;;;;;;2.47;0.50;;;;;;;;;;5034177;28;20029;-51
2021/05/05 10:35:51;;;;;;;2.20;0.60;;;;;;;;;;5033980;28;20018;-48
2021/05/05 10:38:32;;;;;;;1.65;0.30;;;;;;;;;;5032611;28;20040;-52
2021/05/05 10:41:07;;;;;;;3.22;0.20;;;;;;;;;;5033157;28;20429;-52
2021/05/05 10:43:32;;;;;;;;;;;;;;;;;;5034008;28;20038;-51
2021/05/05 10:45:57;;;;;;;1.65;0.20;;;;;;;;;;5033282;28;19913;-51
2021/05/05 10:48:25;;;;;;;1.80;0.25;;;;;;;;;;5030621;28;20058;-49
2021/05/05 10:50:55;;;;;;;4.22;0.65;;;;;;;;;;5032620;28;20025;-52
2021/05/05 10:53:44;;;;;;;0.90;0.22;;;;;;;;;;5015298;28;20045;-49
2021/05/05 10:56:22;;;;;;;2.22;0.20;;;;;;;;;;5037565;28;20041;-52
2021/05/05 10:59:00;;;;;;;1.80;0.20;;;;;;;;;;5034659;28;20501;-52
2021/05/05 11:01:46;;;;;;;1.02;0.20;;;;;;;;;;5032898;28;20018;-54
2021/05/05 11:04:14;;;;;;;0.15;0.10;;;;;;;;;;5031349;28;20018;-48
2021/05/05 11:06:43;;;;;;;1.55;0.32;;;;;;;;;;5032689;28;20080;-51
2021/05/05 11:09:11;;;;;;;1.20;0.20;;;;;;;;;;5024869;28;20091;-53
2021/05/05 11:11:41;;;;;;;1.50;0.30;;;;;;;;;;5032371;28;20352;-51
2021/05/05 11:14:06;;;;;;;2.58;0.82;;;;;;;;;;5031558;28;20188;-52
2021/05/05 11:16:50;;;;;;;2.05;0.30;;;;;;;;;;5032674;28;20044;-53
2021/05/05 11:19:54;;;;;;;3.10;0.30;;;;;;;;;;5027976;28;20044;-54
2021/05/05 11:22:19;;;;;;;2.55;0.43;;;;;;;;;;5010469;28;20029;-54
2021/05/05 11:24:45;;;;;;;3.83;0.32;;;;;;;;;;5009675;28;20370;-53
2021/05/05 11:27:11;;;;;;;3.03;0.40;;;;;;;;;;5002090;28;20037;-54
2021/05/05 11:29:47;;;;;;;2.33;0.30;;;;;;;;;;5007706;28;20216;-54
2021/05/05 11:32:18;;;;;;;2.50;0.50;;;;;;;;;;5010781;28;20025;-53
2021/05/05 11:34:45;;;;;;;1.42;0.38;;;;;;;;;;5010505;28;20580;-52
2021/05/05 11:37:15;;;;;;;0.77;0.22;;;;;;;;;;5007333;28;20026;-51
2021/05/05 11:39:41;;;;;;;1.40;0.20;;;;;;;;;;5010160;28;20026;-52
2021/05/05 11:42:12;;;;;;;1.50;0.22;;;;;;;;;;5009776;28;20600;-53
2021/05/05 11:44:39;;;;;;;1.77;0.20;;;;;;;;;;5007881;28;20057;-53
2021/05/05 11:47:07;;;;;;;1.13;0.30;;;;;;;;;;4988574;28;20030;-54
2021/05/05 11:49:39;;;;;;;1.92;0.15;;;;;;;;;;5002045;28;20022;-52
2021/05/05 11:52:23;;;;;;;1.05;0.47;;;;;;;;;;5011432;28;20469;-51
2021/05/05 11:55:11;;;;;;;1.17;0.20;;;;;;;;;;5032096;28;20017;-52
2021/05/05 11:57:50;;;;;;;2.60;0.35;;;;;;;;;;5040222;28;20075;-53
2021/05/05 12:00:25;;;;;;;15.00;0.80;;;;;;;;;;5016056;28;20075;-50
2021/05/05 12:02:51;;;;;;;3.10;0.20;;;;;;;;;;5031371;28;20075;-53
2021/05/05 12:05:24;;;;;;;2.90;0.20;;;;;;;;;;5032024;28;20030;-47
2021/05/05 12:08:13;;;;;;;0.75;0.25;;;;;;;;;;5035380;28;20345;-51
2021/05/05 12:10:42;;;;;;;1.85;0.40;;;;;;;;;;5031303;28;20041;-52
2021/05/05 12:13:07;;;;;;;0.65;0.20;;;;;;;;;;5035344;28;20393;-50
2021/05/05 12:15:34;;;;;;;1.80;0.40;;;;;;;;;;5033095;28;20051;-50
2021/05/05 12:18:05;;;;;;;3.08;0.38;;;;;;;;;;5027945;28;20107;-49
2021/05/05 12:20:30;;;;;;;0.82;0.25;;;;;;;;;;5031248;28;20481;-48
2021/05/05 12:22:56;;;;;;;3.03;0.60;;;;;;;;;;5028550;28;20028;-51
2021/05/05 12:25:27;;;;;;;1.38;0.70;;;;;;;;;;5031383;28;20120;-52
2021/05/05 12:27:56;;;;;;;1.00;0.20;;;;;;;;;;5027443;28;20021;-50
2021/05/05 12:30:22;;;;;;;1.37;0.30;;;;;;;;;;5031764;28;20152;-49
2021/05/05 12:32:48;;;;;;;1.23;0.20;;;;;;;;;;5031555;28;20096;-51
2021/05/05 12:35:21;;;;;;;0.20;0.20;;;;;;;;;;5030942;28;21438;-50
2021/05/05 12:37:46;;;;;;;0.60;0.32;;;;;;;;;;5028362;28;20039;-48
2021/05/05 12:40:12;;;;;;;8.60;0.40;;;;;;;;;;5032763;28;20124;-53
2021/05/05 12:42:37;;;;;;;0.75;0.22;;;;;;;;;;5031092;28;20630;-52
2021/05/05 12:45:07;;;;;;;1.85;0.30;;;;;;;;;;5030594;28;20033;-50
2021/05/05 12:47:32;;;;;;;1.27;0.30;;;;;;;;;;5028533;28;20025;-55
2021/05/05 12:49:59;;;;;;;0.85;0.20;;;;;;;;;;5030957;28;20028;-53
2021/05/05 12:52:31;;;;;;;2.00;0.20;;;;;;;;;;5043397;28;20110;-55
2021/05/05 12:54:58;;;;;;;0.38;0.13;;;;;;;;;;5039743;28;20477;-52
2021/05/05 12:57:23;;;;;;;2.95;0.32;;;;;;;;;;5039746;28;20030;-53
2021/05/05 12:59:51;;;;;;;0.73;0.30;;;;;;;;;;5036543;28;20496;-52
2021/05/05 13:02:20;;;;;;;0.65;0.13;;;;;;;;;;5046482;28;20031;-56
2021/05/05 13:04:46;;;;;;;1.30;0.38;;;;;;;;;;5045264;28;20020;-50
2021/05/05 13:07:30;;;;;;;1.05;0.17;;;;;;;;;;5036643;28;20428;-51
2021/05/05 13:10:03;;;;;;;1.55;0.40;;;;;;;;;;5032876;28;20037;-51
2021/05/05 13:12:35;;;;;;;1.05;0.30;;;;;;;;;;5032838;28;20021;-52
2021/05/05 13:15:17;;;;;;;1.20;0.40;;;;;;;;;;5037796;28;20024;-50
2021/05/05 13:18:24;;;;;;;2.13;0.40;;;;;;;;;;5042278;28;20423;-52
2021/05/05 13:32:49;;;;;;;0.17;0.10;;;;;;;;;;5027701;28;20088;-51
2021/05/05 13:35:32;;;;;;;0.10;0.10;;;;;;;;;;5039645;28;20028;-51
2021/05/05 13:37:59;;;;;;;0.75;0.10;;;;;;;;;;5035605;28;20468;-50
2021/05/05 13:40:25;;;;;;;0.30;0.10;;;;;;;;;;5033616;28;20079;-54
2021/05/05 13:42:53;;;;;;;0.45;0.20;;;;;;;;;;5033034;28;20476;-54
2021/05/05 13:45:19;;;;;;;0.30;0.10;;;;;;;;;;5043335;28;20026;-51
2021/05/05 13:47:48;;;;;;;0.70;0.10;;;;;;;;;;5033240;28;20013;-55
2021/05/05 13:50:13;;;;;;;0.57;0.10;;;;;;;;;;5032584;28;20040;-51
2021/05/05 13:52:41;;;;;;;2.20;0.35;;;;;;;;;;5025509;28;20492;-54
2021/05/05 13:55:07;;;;;;;0.20;0.10;;;;;;;;;;5036736;28;20336;-55
2021/05/05 13:57:34;;;;;;;2.35;0.85;;;;;;;;;;5042442;28;20026;-53
2021/05/05 14:00:04;;;;;;;0.20;0.00;;;;;;;;;;5045723;28;20410;-53
2021/05/05 14:02:30;;;;;;;1.02;0.10;;;;;;;;;;5034498;28;20624;-52
2021/05/05 14:16:19;;;;;;;0.10;0.10;;;;;;;;;;5114249;27;20873;-54
2021/05/05 14:18:44;;;;;;;0.70;0.20;;;;;;;;;;5097032;28;20059;-54
2021/05/05 14:21:13;;;;;;;0.60;0.30;;;;;;;;;;5099640;28;20043;-53
2021/05/05 14:23:39;;;;;;;0.30;0.20;;;;;;;;;;5100403;28;20027;-54
2021/05/05 14:26:04;;;;;;;0.10;0.10;;;;;;;;;;5101628;28;20009;-56
2021/05/05 14:28:29;;;;;;;0.40;0.30;;;;;;;;;;5103472;28;20012;-55
2021/05/05 14:30:55;;;;;;;0.57;0.28;;;;;;;;;;5089653;28;20012;-55
2021/05/05 14:33:20;;;;;;;0.45;0.28;;;;;;;;;;5090207;28;20455;-56
2021/05/05 14:35:45;;;;;;;0.20;0.20;;;;;;;;;;5098876;28;20036;-55
2021/05/05 14:38:14;;;;;;;0.45;0.22;;;;;;;;;;5098151;28;20023;-54
2021/05/05 14:40:42;;;;;;;0.50;0.30;;;;;;;;;;5093565;28;20073;-57
2021/05/05 14:48:16;;;;;;;0.68;0.20;;;;;;;;;;5094707;28;20416;-54
2021/05/05 14:50:43;;;;;;;0.52;0.17;;;;;;;;;;5100369;28;20021;-56
2021/05/05 14:53:08;;;;;;;0.10;0.10;;;;;;;;;;5096680;28;20013;-54
2021/05/05 14:55:34;;;;;;;0.30;0.20;;;;;;;;;;5089867;28;20012;-56
2021/05/05 14:58:06;;;;;;;0.80;0.20;;;;;;;;;;5096468;28;20409;-58
2021/05/05 15:00:31;;;;;;;0.70;0.20;;;;;;;;;;5090741;28;20711;-58
2021/05/05 15:02:57;;;;;;;0.52;0.17;;;;;;;;;;5094602;28;20029;-56
2021/05/05 15:05:23;;;;;;;0.68;0.30;;;;;;;;;;5087776;28;20449;-57
2021/05/05 15:07:51;;;;;;;0.20;0.20;;;;;;;;;;5089263;28;20032;-55
2021/05/05 15:15:34;;;;;;;2.13;0.20;;;;;;;;;;5094152;28;20049;-56
2021/05/05 15:30:02;;;;;;;1.27;0.10;;;;;;;;;;5076864;28;20039;-54
2021/05/05 15:37:03;;;;;;;0.55;0.00;;;;;;;;;;5075467;28;20021;-54
2021/05/05 15:39:32;;;;;;;0.00;0.00;;;;;;;;;;5077460;28;20024;-56
2021/05/05 15:42:00;;;;;;;0.88;0.65;;;;;;;;;;5081341;28;20119;-55
2021/05/05 15:44:42;;;;;;;0.20;0.10;;;;;;;;;;5084718;28;20038;-54